createdAt,value
2018-12-21T00:00:42.226Z,1.98
2018-12-21T00:03:09.934Z,2.30
2018-12-21T00:05:37.411Z,1.90
2018-12-21T00:08:09.970Z,1.93
2018-12-21T00:10:37.440Z,2.23
2018-12-21T00:13:04.965Z,2.00
2018-12-21T00:15:32.429Z,1.83
2018-12-21T00:18:00.667Z,2.27
2018-12-21T00:20:28.228Z,2.40
2018-12-21T00:22:59.736Z,2.30
2018-12-21T00:25:27.162Z,2.00
2018-12-21T00:27:55.611Z,2.17
2018-12-21T00:30:22.615Z,2.00
2018-12-21T00:32:56.038Z,2.20
2018-12-21T00:35:29.191Z,1.85
2018-12-21T00:38:06.566Z,2.30
2018-12-21T00:40:39.634Z,2.50
2018-12-21T00:46:08.391Z,1.80
2018-12-21T00:48:35.827Z,2.30
2018-12-21T00:51:04.106Z,1.75
2018-12-21T00:53:31.538Z,2.25
2018-12-21T00:55:59.009Z,1.93
2018-12-21T00:58:26.444Z,2.00
2018-12-21T01:00:53.951Z,2.20
2018-12-21T01:03:21.401Z,2.00
2018-12-21T01:05:48.846Z,2.30
2018-12-21T01:08:24.453Z,2.20
2018-12-21T01:10:51.987Z,2.30
2018-12-21T01:13:19.610Z,2.50
2018-12-21T01:15:47.051Z,2.60
2018-12-21T01:18:14.774Z,1.98
2018-12-21T01:20:42.967Z,2.08
2018-12-21T01:23:10.509Z,2.10
2018-12-21T01:25:38.022Z,1.97
2018-12-21T01:28:05.541Z,1.97
2018-12-21T01:30:33.332Z,2.15
2018-12-21T01:33:00.809Z,1.80
2018-12-21T01:35:28.274Z,2.33
2018-12-21T01:37:56.350Z,1.77
2018-12-21T01:40:23.809Z,2.07
2018-12-21T01:42:51.285Z,2.12
2018-12-21T01:45:18.719Z,2.27
2018-12-21T01:47:46.153Z,2.05
2018-12-21T01:50:13.637Z,1.85
2018-12-21T01:52:41.158Z,2.03
2018-12-21T01:55:08.602Z,1.73
2018-12-21T01:57:36.153Z,2.00
2018-12-21T02:00:06.057Z,2.20
2018-12-21T02:02:33.518Z,2.00
2018-12-21T02:05:01.205Z,2.20
2018-12-21T02:07:29.344Z,2.05
2018-12-21T02:09:56.787Z,2.20
2018-12-21T02:12:24.243Z,2.30
2018-12-21T02:14:51.794Z,1.97
2018-12-21T02:17:19.233Z,2.50
2018-12-21T02:19:47.077Z,2.72
2018-12-21T02:22:14.538Z,2.90
2018-12-21T02:24:42.072Z,2.70
2018-12-21T02:27:09.571Z,2.83
2018-12-21T02:29:37.933Z,2.22
2018-12-21T02:32:05.584Z,2.87
2018-12-21T02:34:33.043Z,2.57
2018-12-21T02:37:00.546Z,3.13
2018-12-21T02:39:31.135Z,2.77
2018-12-21T02:41:58.738Z,2.60
2018-12-21T02:44:27.213Z,2.30
2018-12-21T02:46:54.778Z,3.03
2018-12-21T02:49:22.267Z,2.50
2018-12-21T02:51:49.703Z,2.50
2018-12-21T02:54:17.143Z,2.50
2018-12-21T02:56:44.611Z,3.02
2018-12-21T02:59:12.172Z,2.10
2018-12-21T03:01:40.651Z,2.55
2018-12-21T03:04:08.087Z,4.00
2018-12-21T03:06:35.865Z,2.77
2018-12-21T03:09:07.198Z,2.17
2018-12-21T03:11:34.776Z,2.20
2018-12-21T03:14:02.230Z,2.77
2018-12-21T03:16:30.461Z,2.60
2018-12-21T03:18:57.938Z,2.90
2018-12-21T03:21:25.406Z,2.43
2018-12-21T03:23:53.065Z,2.50
2018-12-21T03:26:24.610Z,2.60
2018-12-21T03:28:52.085Z,2.60
2018-12-21T03:31:19.828Z,2.67
2018-12-21T03:33:47.629Z,2.57
2018-12-21T03:36:15.063Z,2.73
2018-12-21T03:38:42.741Z,2.33
2018-12-21T03:41:10.274Z,2.80
2018-12-21T03:43:38.682Z,2.27
2018-12-21T03:46:06.296Z,2.70
2018-12-21T03:48:33.786Z,2.90
2018-12-21T03:51:01.224Z,2.63
2018-12-21T03:53:28.802Z,2.30
2018-12-21T03:55:56.273Z,2.33
2018-12-21T03:58:27.012Z,2.83
2018-12-21T04:00:54.474Z,3.00
2018-12-21T04:03:22.850Z,2.98
2018-12-21T04:05:50.505Z,2.77
2018-12-21T04:08:17.949Z,2.47
2018-12-21T04:10:45.418Z,2.60
2018-12-21T04:13:12.868Z,2.63
2018-12-21T04:15:40.479Z,2.55
2018-12-21T04:18:08.012Z,2.53
2018-12-21T04:20:35.601Z,2.60
2018-12-21T04:23:03.045Z,3.10
2018-12-21T04:25:31.286Z,2.67
2018-12-21T04:27:58.759Z,3.00
2018-12-21T04:30:26.257Z,2.30
2018-12-21T04:32:53.725Z,3.02
2018-12-21T04:35:21.435Z,2.47
2018-12-21T04:37:48.919Z,3.83
2018-12-21T04:40:16.438Z,3.60
2018-12-21T04:42:44.806Z,3.50
2018-12-21T04:45:12.356Z,3.62
2018-12-21T04:47:39.849Z,2.90
2018-12-21T04:50:07.686Z,2.63
2018-12-21T04:52:42.926Z,3.52
2018-12-21T04:55:04.812Z,3.00
2018-12-21T04:57:32.241Z,3.50
2018-12-21T04:59:59.894Z,2.70
2018-12-21T05:02:27.534Z,3.25
2018-12-21T05:04:55.117Z,4.17
2018-12-21T05:07:23.117Z,3.04
2018-12-21T05:09:50.846Z,3.45
2018-12-21T05:12:18.331Z,3.10
2018-12-21T05:14:45.797Z,3.03
2018-12-21T05:17:13.294Z,3.10
2018-12-21T05:19:41.088Z,3.00
2018-12-21T05:22:08.568Z,2.65
2018-12-21T05:24:36.310Z,3.30
2018-12-21T05:27:07.147Z,3.10
2018-12-21T05:29:34.600Z,2.77
2018-12-21T05:32:02.038Z,2.53
2018-12-21T05:34:29.874Z,2.10
2018-12-21T05:36:57.324Z,3.07
2018-12-21T05:39:24.825Z,2.23
2018-12-21T05:41:52.300Z,2.37
2018-12-21T05:44:19.776Z,2.60
2018-12-21T05:46:47.306Z,2.75
2018-12-21T05:49:15.569Z,2.40
2018-12-21T05:51:43.030Z,3.00
2018-12-21T05:54:10.816Z,2.80
2018-12-21T05:56:38.276Z,2.10
2018-12-21T05:59:05.773Z,2.37
2018-12-21T06:01:33.265Z,2.90
2018-12-21T06:04:00.740Z,2.10
2018-12-21T06:06:28.235Z,1.70
2018-12-21T06:08:55.669Z,2.80
2018-12-21T06:11:23.716Z,3.10
2018-12-21T06:13:51.246Z,2.60
2018-12-21T06:16:18.698Z,2.53
2018-12-21T06:18:46.263Z,2.27
2018-12-21T06:21:13.721Z,2.23
2018-12-21T06:23:41.201Z,2.70
2018-12-21T06:26:08.653Z,3.00
2018-12-21T06:28:36.128Z,3.08
2018-12-21T06:31:03.771Z,2.72
2018-12-21T06:33:31.861Z,2.58
2018-12-21T06:35:59.306Z,3.50
2018-12-21T06:38:26.789Z,2.43
2018-12-21T06:40:54.232Z,2.70
2018-12-21T06:43:24.858Z,2.02
2018-12-21T06:45:52.354Z,2.33
2018-12-21T06:48:19.892Z,2.50
2018-12-21T06:50:47.321Z,2.20
2018-12-21T06:53:18.059Z,2.35
2018-12-21T06:55:46.072Z,2.17
2018-12-21T06:58:13.521Z,2.20
2018-12-21T07:00:41.006Z,2.27
2018-12-21T07:03:16.779Z,2.60
2018-12-21T07:05:37.907Z,2.83
2018-12-21T07:08:05.660Z,2.00
2018-12-21T07:10:33.272Z,1.60
2018-12-21T07:13:00.729Z,2.15
2018-12-21T07:15:28.171Z,2.80
2018-12-21T07:17:55.663Z,2.10
2018-12-21T07:20:23.137Z,2.20
2018-12-21T07:22:50.646Z,2.10
2018-12-21T07:25:18.138Z,2.58
2018-12-21T07:27:45.602Z,2.77
2018-12-21T07:30:14.036Z,9.30
2018-12-21T07:32:41.516Z,2.60
2018-12-21T07:35:09.146Z,2.30
2018-12-21T07:37:36.578Z,2.10
2018-12-21T07:40:07.479Z,2.30
2018-12-21T07:42:34.929Z,2.77
2018-12-21T07:45:04.400Z,2.50
2018-12-21T07:47:32.241Z,1.90
2018-12-21T07:50:00.174Z,2.30
2018-12-21T07:52:27.752Z,2.40
2018-12-21T07:54:55.239Z,2.50
2018-12-21T07:57:22.906Z,1.37
2018-12-21T07:59:50.362Z,1.90
2018-12-21T08:02:17.842Z,2.00
2018-12-21T08:04:45.328Z,1.67
2018-12-21T08:07:12.816Z,1.87
2018-12-21T08:09:40.323Z,1.57
2018-12-21T08:12:07.753Z,2.37
2018-12-21T08:14:35.217Z,2.02
2018-12-21T08:17:02.671Z,1.80
2018-12-21T08:19:32.146Z,2.15
2018-12-21T08:21:59.963Z,1.85
2018-12-21T08:24:27.402Z,1.57
2018-12-21T08:26:55.245Z,2.58
2018-12-21T08:29:22.726Z,1.73
2018-12-21T08:31:50.390Z,1.62
2018-12-21T08:34:17.852Z,2.20
2018-12-21T08:36:45.302Z,2.13
2018-12-21T08:39:13.478Z,2.20
2018-12-21T08:41:41.111Z,1.87
2018-12-21T08:44:08.562Z,2.40
2018-12-21T08:46:36.034Z,1.95
2018-12-21T08:49:03.505Z,2.90
2018-12-21T08:51:30.957Z,2.27
2018-12-21T08:53:58.417Z,2.00
2018-12-21T08:56:25.901Z,2.37
2018-12-21T08:58:53.551Z,2.23
2018-12-21T09:01:21.021Z,2.20
2018-12-21T09:03:49.004Z,2.10
2018-12-21T09:06:18.544Z,2.35
2018-12-21T09:08:47.052Z,1.60
2018-12-21T09:11:14.612Z,2.70
2018-12-21T09:13:42.056Z,2.13
2018-12-21T09:16:13.219Z,2.73
2018-12-21T09:18:40.669Z,2.57
2018-12-21T09:21:08.433Z,1.57
2018-12-21T09:23:36.510Z,1.60
2018-12-21T09:26:03.990Z,2.52
2018-12-21T09:28:31.456Z,2.13
2018-12-21T09:30:58.934Z,1.75
2018-12-21T09:33:29.817Z,1.97
2018-12-21T09:35:57.378Z,1.90
2018-12-21T09:38:24.834Z,2.20
2018-12-21T09:40:52.366Z,1.90
2018-12-21T09:43:20.765Z,2.45
2018-12-21T09:45:48.238Z,1.70
2018-12-21T09:48:15.664Z,1.73
2018-12-21T09:50:43.453Z,1.70
2018-12-21T09:53:10.907Z,1.50
2018-12-21T09:55:38.454Z,1.37
2018-12-21T09:58:08.893Z,2.15
2018-12-21T10:00:36.324Z,1.85
2018-12-21T10:03:07.510Z,1.35
2018-12-21T10:05:35.089Z,1.80
2018-12-21T10:08:02.566Z,2.00
2018-12-21T10:10:30.133Z,1.47
2018-12-21T10:12:57.604Z,1.72
2018-12-21T10:15:25.087Z,3.10
2018-12-21T10:17:55.689Z,2.10
2018-12-21T10:20:23.139Z,2.30
2018-12-21T10:22:50.604Z,2.27
2018-12-21T10:25:19.018Z,1.92
2018-12-21T10:27:46.587Z,1.60
2018-12-21T10:30:14.234Z,1.73
2018-12-21T10:32:41.730Z,2.08
2018-12-21T10:35:09.254Z,2.17
2018-12-21T10:37:36.811Z,2.40
2018-12-21T10:40:06.131Z,1.30
2018-12-21T10:42:33.674Z,2.07
2018-12-21T10:45:01.134Z,1.80
2018-12-21T10:47:31.817Z,3.03
2018-12-21T10:49:59.316Z,2.12
2018-12-21T10:52:27.130Z,2.14
2018-12-21T10:54:54.607Z,2.70
2018-12-21T10:57:22.094Z,2.20
2018-12-21T10:59:49.599Z,2.53
2018-12-21T11:02:17.025Z,1.60
2018-12-21T11:04:44.470Z,2.37
2018-12-21T11:07:11.974Z,2.50
2018-12-21T11:09:39.402Z,1.53
2018-12-21T11:12:06.888Z,1.85
2018-12-21T11:14:35.364Z,2.98
2018-12-21T11:17:02.936Z,1.53
2018-12-21T11:19:31.157Z,1.90
2018-12-21T11:21:58.658Z,1.60
2018-12-21T11:24:26.180Z,1.95
2018-12-21T11:26:54.886Z,1.87
2018-12-21T11:29:22.422Z,2.30
2018-12-21T11:31:49.883Z,1.47
2018-12-21T11:34:20.523Z,1.60
2018-12-21T11:36:47.964Z,1.93
2018-12-21T11:39:15.841Z,1.60
2018-12-21T11:41:44.005Z,2.35
2018-12-21T11:44:11.470Z,1.50
2018-12-21T11:46:38.963Z,1.80
2018-12-21T11:49:09.556Z,1.10
2018-12-21T11:51:37.125Z,1.73
2018-12-21T11:54:04.642Z,1.77
2018-12-21T11:56:32.101Z,1.72
2018-12-21T11:58:59.586Z,1.40
2018-12-21T12:01:27.123Z,1.87
2018-12-21T12:03:57.677Z,1.80
2018-12-21T12:06:25.105Z,1.80
2018-12-21T12:08:52.646Z,1.83
2018-12-21T12:11:20.118Z,1.60
2018-12-21T12:13:47.698Z,1.60
2018-12-21T12:16:15.737Z,1.70
2018-12-21T12:18:43.188Z,1.30
2018-12-21T12:21:10.689Z,1.20
2018-12-21T12:23:38.150Z,1.30
2018-12-21T12:26:05.830Z,1.95
2018-12-21T12:28:33.374Z,1.30
2018-12-21T12:31:01.339Z,1.45
2018-12-21T12:33:28.795Z,1.57
2018-12-21T12:35:56.262Z,1.07
2018-12-21T12:38:23.751Z,1.30
2018-12-21T12:40:51.176Z,1.50
2018-12-21T12:43:18.679Z,1.97
2018-12-21T12:45:46.202Z,1.50
2018-12-21T12:48:13.657Z,1.27
2018-12-21T12:50:41.120Z,1.55
2018-12-21T12:53:09.478Z,1.40
2018-12-21T12:55:36.948Z,1.90
2018-12-21T12:58:04.435Z,1.60
2018-12-21T13:00:31.905Z,2.63
2018-12-21T13:02:59.410Z,2.10
2018-12-21T13:05:26.902Z,1.92
2018-12-21T13:07:54.352Z,1.57
2018-12-21T13:10:21.838Z,2.17
2018-12-21T13:12:49.278Z,2.22
2018-12-21T13:15:16.751Z,2.22
2018-12-21T13:17:44.312Z,2.50
2018-12-21T13:20:12.430Z,1.85
2018-12-21T13:22:39.933Z,1.80
2018-12-21T13:25:11.525Z,1.43
2018-12-21T13:27:37.004Z,1.40
2018-12-21T13:30:07.139Z,1.70
2018-12-21T13:32:34.670Z,1.43
2018-12-21T13:35:02.213Z,1.80
2018-12-21T13:37:29.966Z,2.05
2018-12-21T13:39:57.418Z,1.07
2018-12-21T13:42:26.884Z,2.22
2018-12-21T13:44:54.608Z,2.08
2018-12-21T13:47:22.466Z,2.13
2018-12-21T13:49:50.194Z,1.50
2018-12-21T13:52:17.656Z,1.65
2018-12-21T13:54:45.209Z,1.95
2018-12-21T13:57:12.900Z,1.70
2018-12-21T13:59:40.400Z,1.70
2018-12-21T14:02:07.921Z,1.47
2018-12-21T14:04:35.387Z,1.00
2018-12-21T14:07:06.879Z,1.40
2018-12-21T14:09:34.802Z,1.50
2018-12-21T14:12:02.277Z,1.30
2018-12-21T14:14:29.726Z,1.20
2018-12-21T14:16:57.319Z,1.35
2018-12-21T14:19:24.781Z,1.25
2018-12-21T14:21:52.330Z,1.40
2018-12-21T14:24:19.871Z,1.00
2018-12-21T14:26:47.375Z,1.90
2018-12-21T14:29:14.904Z,1.90
2018-12-21T14:31:43.146Z,1.77
2018-12-21T14:34:11.508Z,1.42
2018-12-21T14:36:39.258Z,2.03
2018-12-21T14:39:07.685Z,2.67
2018-12-21T14:41:35.179Z,1.30
2018-12-21T14:44:02.753Z,1.90
2018-12-21T14:46:30.213Z,2.33
2018-12-21T14:48:57.669Z,1.63
2018-12-21T14:51:29.123Z,1.65
2018-12-21T14:53:57.317Z,1.50
2018-12-21T14:56:24.780Z,1.13
2018-12-21T14:58:52.413Z,1.10
2018-12-21T15:01:20.137Z,1.67
2018-12-21T15:03:47.610Z,1.10
2018-12-21T15:06:15.215Z,1.70
2018-12-21T15:08:43.301Z,2.17
2018-12-21T15:11:11.001Z,0.80
2018-12-21T15:13:38.482Z,1.20
2018-12-21T15:16:06.066Z,1.07
2018-12-21T15:18:33.589Z,1.10
2018-12-21T15:21:01.048Z,1.62
2018-12-21T15:23:28.533Z,1.30
2018-12-21T15:25:55.981Z,1.03
2018-12-21T15:28:23.469Z,1.00
2018-12-21T15:30:50.906Z,1.37
2018-12-21T15:33:19.163Z,1.47
2018-12-21T15:35:46.637Z,2.47
2018-12-21T15:38:14.074Z,1.43
2018-12-21T15:40:41.763Z,1.50
2018-12-21T15:43:09.204Z,1.20
2018-12-21T15:45:36.686Z,1.20
2018-12-21T15:48:04.158Z,1.37
2018-12-21T15:50:31.596Z,1.30
2018-12-21T15:53:02.417Z,0.95
2018-12-21T15:55:30.479Z,1.37
2018-12-21T15:57:57.988Z,1.37
2018-12-21T16:00:25.587Z,1.40
2018-12-21T16:02:53.366Z,1.20
2018-12-21T16:05:20.796Z,1.23
2018-12-21T16:07:51.352Z,1.50
2018-12-21T16:10:18.880Z,2.40
2018-12-21T16:12:47.405Z,0.98
2018-12-21T16:15:14.895Z,0.90
2018-12-21T16:17:42.376Z,2.05
2018-12-21T16:20:11.118Z,1.52
2018-12-21T16:22:42.474Z,1.20
2018-12-21T16:25:08.268Z,1.10
2018-12-21T16:27:36.525Z,1.10
2018-12-21T16:30:06.995Z,1.23
2018-12-21T16:32:35.229Z,1.53
2018-12-21T16:35:02.744Z,1.33
2018-12-21T16:37:30.478Z,1.27
2018-12-21T16:39:57.911Z,1.20
2018-12-21T16:42:26.299Z,1.70
2018-12-21T16:44:53.821Z,1.10
2018-12-21T16:47:21.253Z,1.47
2018-12-21T16:49:48.723Z,1.50
2018-12-21T16:52:16.217Z,1.70
2018-12-21T16:54:47.683Z,1.27
2018-12-21T16:57:15.756Z,1.30
2018-12-21T16:59:43.219Z,1.90
2018-12-21T17:02:10.754Z,1.70
2018-12-21T17:04:38.259Z,2.10
2018-12-21T17:07:05.832Z,1.35
2018-12-21T17:09:33.359Z,1.10
2018-12-21T17:12:00.830Z,2.10
2018-12-21T17:14:28.836Z,1.57
2018-12-21T17:16:56.311Z,1.70
2018-12-21T17:19:24.290Z,2.10
2018-12-21T17:21:53.212Z,1.87
2018-12-21T17:24:28.405Z,1.27
2018-12-21T17:26:56.023Z,1.55
2018-12-21T17:29:24.309Z,1.35
2018-12-21T17:31:51.806Z,1.55
2018-12-21T17:34:19.387Z,1.37
2018-12-21T17:36:46.821Z,1.33
2018-12-21T17:39:18.281Z,1.10
2018-12-21T17:41:45.743Z,1.33
2018-12-21T17:44:13.901Z,1.10
2018-12-21T17:46:41.335Z,1.10
2018-12-21T17:49:08.899Z,1.10
2018-12-21T17:51:38.435Z,1.50
2018-12-21T17:54:05.816Z,1.17
2018-12-21T17:56:33.393Z,1.70
2018-12-21T17:59:00.842Z,1.30
2018-12-21T18:01:28.346Z,1.60
2018-12-21T18:03:55.969Z,1.02
2018-12-21T18:06:23.431Z,1.10
2018-12-21T18:08:50.950Z,1.13
2018-12-21T18:11:18.484Z,0.93
2018-12-21T18:13:46.785Z,1.10
2018-12-21T18:16:14.241Z,2.02
2018-12-21T18:18:41.694Z,1.43
2018-12-21T18:21:09.462Z,0.90
2018-12-21T18:23:36.977Z,1.60
2018-12-21T18:26:04.586Z,1.20
2018-12-21T18:28:32.044Z,1.67
2018-12-21T18:31:03.408Z,0.97
2018-12-21T18:33:30.854Z,1.40
2018-12-21T18:35:58.335Z,1.90
2018-12-21T18:38:25.875Z,1.70
2018-12-21T18:40:53.799Z,2.10
2018-12-21T18:43:21.245Z,1.00
2018-12-21T18:45:48.708Z,1.40
2018-12-21T18:48:16.203Z,1.47
2018-12-21T18:50:43.866Z,1.23
2018-12-21T18:53:11.744Z,1.10
2018-12-21T18:55:39.500Z,1.10
2018-12-21T18:58:06.995Z,1.70
2018-12-21T19:00:34.479Z,1.65
2018-12-21T19:03:01.957Z,0.98
2018-12-21T19:05:29.438Z,1.00
2018-12-21T19:07:56.904Z,1.40
2018-12-21T19:10:24.355Z,1.30
2018-12-21T19:12:53.291Z,1.00
2018-12-21T19:15:22.567Z,1.10
2018-12-21T19:17:50.295Z,1.25
2018-12-21T19:20:17.735Z,1.20
2018-12-21T19:22:45.291Z,1.00
2018-12-21T19:25:12.885Z,1.30
2018-12-21T19:27:40.401Z,1.20
2018-12-21T19:30:08.555Z,0.93
2018-12-21T19:32:36.608Z,0.90
2018-12-21T19:35:05.934Z,1.00
2018-12-21T19:37:33.444Z,1.50
2018-12-21T19:40:01.199Z,0.90
2018-12-21T19:42:28.730Z,1.30
2018-12-21T19:44:56.226Z,0.90
2018-12-21T19:47:23.670Z,1.27
2018-12-21T19:49:51.164Z,1.30
2018-12-21T19:52:19.177Z,1.52
2018-12-21T19:54:47.543Z,2.00
2018-12-21T19:57:15.169Z,1.25
2018-12-21T19:59:42.649Z,1.27
2018-12-21T20:02:10.148Z,1.53
2018-12-21T20:04:37.770Z,1.17
2018-12-21T20:07:05.268Z,2.03
2018-12-21T20:09:32.778Z,0.90
2018-12-21T20:12:03.968Z,1.10
2018-12-21T20:14:31.533Z,0.90
2018-12-21T20:16:59.024Z,0.80
2018-12-21T20:19:26.614Z,1.10
2018-12-21T20:21:54.229Z,1.00
2018-12-21T20:24:23.215Z,1.07
2018-12-21T20:26:50.836Z,0.90
2018-12-21T20:29:22.621Z,1.15
2018-12-21T20:31:50.236Z,1.20
2018-12-21T20:34:18.691Z,1.10
2018-12-21T20:36:46.188Z,1.00
2018-12-21T20:39:13.699Z,1.77
2018-12-21T20:41:41.147Z,1.00
2018-12-21T20:44:08.662Z,1.40
2018-12-21T20:46:36.260Z,1.25
2018-12-21T20:49:03.848Z,1.00
2018-12-21T20:51:32.615Z,0.93
2018-12-21T20:54:00.057Z,1.10
2018-12-21T20:56:27.499Z,0.90
2018-12-21T20:58:57.962Z,1.00
2018-12-21T21:01:25.426Z,1.10
2018-12-21T21:03:52.874Z,1.10
2018-12-21T21:06:20.383Z,1.30
2018-12-21T21:08:47.831Z,0.70
2018-12-21T21:11:24.042Z,1.37
2018-12-21T21:13:47.817Z,1.00
2018-12-21T21:16:15.302Z,1.20
2018-12-21T21:18:42.800Z,0.80
2018-12-21T21:21:10.289Z,1.07
2018-12-21T21:23:37.751Z,0.90
2018-12-21T21:26:05.937Z,0.80
2018-12-21T21:28:36.678Z,0.90
2018-12-21T21:31:04.138Z,0.90
2018-12-21T21:33:31.607Z,0.85
2018-12-21T21:35:59.091Z,1.10
2018-12-21T21:38:26.558Z,1.07
2018-12-21T21:40:54.151Z,1.00
2018-12-21T21:43:25.610Z,1.10
2018-12-21T21:45:53.059Z,1.00
2018-12-21T21:48:20.538Z,0.70
2018-12-21T21:50:48.007Z,1.00
2018-12-21T21:53:15.479Z,0.88
2018-12-21T21:55:42.939Z,1.00
2018-12-21T21:58:10.434Z,0.93
2018-12-21T22:00:38.048Z,0.80
2018-12-21T22:03:05.556Z,0.75
2018-12-21T22:05:33.523Z,1.30
2018-12-21T22:08:01.005Z,0.80
2018-12-21T22:10:28.936Z,1.10
2018-12-21T22:12:56.405Z,0.77
2018-12-21T22:15:23.970Z,1.10
2018-12-21T22:17:51.415Z,0.93
2018-12-21T22:20:18.958Z,0.90
2018-12-21T22:22:47.439Z,0.90
2018-12-21T22:25:14.970Z,1.10
2018-12-21T22:27:47.899Z,0.70
2018-12-21T22:30:12.319Z,0.94
2018-12-21T22:32:39.842Z,1.10
2018-12-21T22:35:07.370Z,1.13
2018-12-21T22:37:34.869Z,1.00
2018-12-21T22:40:02.328Z,1.00
2018-12-21T22:42:29.888Z,1.40
2018-12-21T22:44:57.351Z,0.80
2018-12-21T22:47:25.014Z,0.80
2018-12-21T22:49:52.554Z,1.15
2018-12-21T22:52:20.739Z,2.67
2018-12-21T22:54:48.502Z,0.90
2018-12-21T22:57:15.985Z,1.05
2018-12-21T22:59:43.720Z,0.80
2018-12-21T23:02:11.198Z,0.83
2018-12-21T23:04:39.761Z,0.85
2018-12-21T23:07:07.211Z,0.70
2018-12-21T23:09:34.666Z,0.83
2018-12-21T23:12:02.179Z,0.70
2018-12-21T23:14:29.654Z,0.73
2018-12-21T23:16:57.146Z,0.80
2018-12-21T23:19:24.662Z,0.70
2018-12-21T23:21:52.108Z,0.80
2018-12-21T23:24:19.562Z,1.05
2018-12-21T23:26:48.122Z,0.85
2018-12-21T23:29:15.627Z,0.80
2018-12-21T23:31:43.059Z,0.93
2018-12-21T23:34:10.508Z,0.98
2018-12-21T23:36:38.042Z,0.77
2018-12-21T23:39:06.494Z,0.70
2018-12-21T23:41:34.175Z,0.70
2018-12-21T23:44:01.634Z,0.83
2018-12-21T23:46:29.125Z,0.98
2018-12-21T23:48:56.650Z,1.02
2018-12-21T23:51:24.082Z,1.05
2018-12-21T23:53:51.554Z,0.90
2018-12-21T23:56:19.045Z,0.88
2018-12-21T23:58:46.918Z,0.70
